Terminal Aerodrome Forecast
Issued by NWS

Home | Current Version | Previous Version | Graphics & Text | Print | Product List | Glossary On
Versions: 1 2 3 4 5 6 7 8 9 10 11 12 13 14
000
FTUS43 KICT 271736
TAFRSL
TAF
KRSL 271736Z 2718/2818 17017G26KT P6SM FEW250
     FM280200 17014G20KT P6SM FEW120 SCT250
     FM281200 20015KT P6SM SCT100 BKN250
     FM281700 26015KT P6SM SCT080 SCT250=

USA.gov is the U.S. government's official web portal to all federal, state and local government web resources and services.